sensor_id;sensor_type;location;lat;lon;timestamp;pressure;altitude;pressure_sealevel;temperature;humidity
7662;BME280;30314;48.184;11.510;2022-07-19T16:00:25;96073.00;;;30.19;25.85
7662;BME280;30314;48.184;11.510;2022-07-19T16:02:54;96039.50;;;29.95;25.83
7662;BME280;30314;48.184;11.510;2022-07-19T16:05:25;96026.50;;;29.79;25.89
7662;BME280;30314;48.184;11.510;2022-07-19T16:07:56;95999.94;;;29.59;26.83
7662;BME280;30314;48.184;11.510;2022-07-19T16:10:23;96006.97;;;29.60;26.52
7662;BME280;30314;48.184;11.510;2022-07-19T16:12:53;95961.59;;;29.19;27.18
7662;BME280;30314;48.184;11.510;2022-07-19T16:15:21;96040.88;;;29.79;26.18
7662;BME280;30314;48.184;11.510;2022-07-19T16:17:50;96057.19;;;29.83;26.40
7662;BME280;30314;48.184;11.510;2022-07-19T16:20:19;96051.38;;;29.81;26.82
7662;BME280;30314;48.184;11.510;2022-07-19T16:22:47;95991.72;;;29.35;28.26
7662;BME280;30314;48.184;11.510;2022-07-19T16:25:14;96049.88;;;29.76;26.97
7662;BME280;30314;48.184;11.510;2022-07-19T16:27:43;96041.31;;;29.78;26.24
7662;BME280;30314;48.184;11.510;2022-07-19T16:30:11;96062.63;;;29.83;27.56
7662;BME280;30314;48.184;11.510;2022-07-19T16:32:39;96000.28;;;29.34;27.41
7662;BME280;30314;48.184;11.510;2022-07-19T16:35:09;96053.03;;;29.75;26.64
7662;BME280;30314;48.184;11.510;2022-07-19T16:37:36;96057.00;;;29.70;27.76
7662;BME280;30314;48.184;11.510;2022-07-19T16:40:08;96055.97;;;29.60;26.40
7662;BME280;30314;48.184;11.510;2022-07-19T16:42:45;96049.78;;;29.56;27.03
7662;BME280;30314;48.184;11.510;2022-07-19T16:45:35;96016.75;;;29.26;26.74
7662;BME280;30314;48.184;11.510;2022-07-19T16:48:03;96037.94;;;29.43;26.96
7662;BME280;30314;48.184;11.510;2022-07-19T16:50:32;96054.69;;;29.68;25.85
7662;BME280;30314;48.184;11.510;2022-07-19T16:53:00;95957.59;;;28.68;26.87
7662;BME280;30314;48.184;11.510;2022-07-19T16:55:29;96032.47;;;29.11;26.49
7662;BME280;30314;48.184;11.510;2022-07-19T16:57:57;95971.88;;;28.76;26.87
7662;BME280;30314;48.184;11.510;2022-07-19T17:00:24;96022.84;;;29.03;26.60
7662;BME280;30314;48.184;11.510;2022-07-19T17:02:53;96034.69;;;29.20;26.76
7662;BME280;30314;48.184;11.510;2022-07-19T17:05:21;95970.78;;;28.70;26.81
7662;BME280;30314;48.184;11.510;2022-07-19T17:07:51;96003.50;;;28.97;26.30
7662;BME280;30314;48.184;11.510;2022-07-19T17:10:19;95930.69;;;28.43;26.38
7662;BME280;30314;48.184;11.510;2022-07-19T17:13:04;96005.63;;;28.82;26.62
7662;BME280;30314;48.184;11.510;2022-07-19T17:15:33;96022.53;;;28.97;26.61
7662;BME280;30314;48.184;11.510;2022-07-19T17:18:01;96033.31;;;29.08;26.38
7662;BME280;30314;48.184;11.510;2022-07-19T17:20:29;96025.63;;;29.00;26.38
7662;BME280;30314;48.184;11.510;2022-07-19T17:22:58;96048.84;;;29.08;26.71
7662;BME280;30314;48.184;11.510;2022-07-19T17:25:26;96059.69;;;29.11;26.34
7662;BME280;30314;48.184;11.510;2022-07-19T17:27:54;96001.19;;;28.61;26.81
7662;BME280;30314;48.184;11.510;2022-07-19T17:30:22;96009.41;;;28.54;27.60
7662;BME280;30314;48.184;11.510;2022-07-19T17:32:52;95898.78;;;27.74;27.29
7662;BME280;30314;48.184;11.510;2022-07-19T17:35:20;96006.91;;;28.32;27.96
7662;BME280;30314;48.184;11.510;2022-07-19T17:37:48;95978.09;;;27.96;28.13
7662;BME280;30314;48.184;11.510;2022-07-19T17:40:17;96033.19;;;28.46;27.50
7662;BME280;30314;48.184;11.510;2022-07-19T17:42:45;95937.19;;;27.72;27.85
7662;BME280;30314;48.184;11.510;2022-07-19T17:45:13;95927.97;;;27.63;28.10
7662;BME280;30314;48.184;11.510;2022-07-19T17:47:41;96034.63;;;28.16;28.18
7662;BME280;30314;48.184;11.510;2022-07-19T17:50:09;96053.53;;;28.31;27.95
7662;BME280;30314;48.184;11.510;2022-07-19T17:52:38;95883.03;;;27.01;28.28
7662;BME280;30314;48.184;11.510;2022-07-19T17:55:07;96015.63;;;28.12;27.19
7662;BME280;30314;48.184;11.510;2022-07-19T17:57:37;95906.13;;;27.24;28.09
7662;BME280;30314;48.184;11.510;2022-07-19T18:04:05;96061.44;;;28.10;28.12
7662;BME280;30314;48.184;11.510;2022-07-19T18:06:34;96060.44;;;27.90;28.89
7662;BME280;30314;48.184;11.510;2022-07-19T18:09:02;96010.25;;;27.56;28.55
7662;BME280;30314;48.184;11.510;2022-07-19T18:11:31;96009.84;;;27.57;28.95
7662;BME280;30314;48.184;11.510;2022-07-19T18:14:02;95896.72;;;26.72;29.16
7662;BME280;30314;48.184;11.510;2022-07-19T18:16:33;96009.91;;;27.43;29.05
7662;BME280;30314;48.184;11.510;2022-07-19T18:19:24;96062.91;;;27.66;29.55
7662;BME280;30314;48.184;11.510;2022-07-19T18:21:52;95940.91;;;26.66;29.32
7662;BME280;30314;48.184;11.510;2022-07-19T18:24:22;95917.00;;;26.46;30.32
7662;BME280;30314;48.184;11.510;2022-07-19T18:26:50;95971.03;;;26.86;30.10
7662;BME280;30314;48.184;11.510;2022-07-19T18:29:20;96008.59;;;27.02;30.78
7662;BME280;30314;48.184;11.510;2022-07-19T18:31:51;95910.84;;;26.27;31.06
7662;BME280;30314;48.184;11.510;2022-07-19T18:34:19;96026.47;;;26.88;31.13
7662;BME280;30314;48.184;11.510;2022-07-19T18:36:48;96067.41;;;27.20;31.48
7662;BME280;30314;48.184;11.510;2022-07-19T18:39:17;95933.72;;;26.19;31.80
7662;BME280;30314;48.184;11.510;2022-07-19T18:41:45;96002.56;;;26.51;33.15
7662;BME280;30314;48.184;11.510;2022-07-19T18:44:56;96062.88;;;26.95;32.17
7662;BME280;30314;48.184;11.510;2022-07-19T18:47:50;95992.53;;;26.29;32.74
7662;BME280;30314;48.184;11.510;2022-07-19T18:50:19;96044.72;;;26.63;32.40
7662;BME280;30314;48.184;11.510;2022-07-19T18:52:50;95897.00;;;25.45;32.88
7662;BME280;30314;48.184;11.510;2022-07-19T18:55:19;96066.44;;;26.55;32.77
7662;BME280;30314;48.184;11.510;2022-07-19T19:01:08;95963.16;;;25.73;32.94
7662;BME280;30314;48.184;11.510;2022-07-19T19:03:52;96061.81;;;26.30;33.01
7662;BME280;30314;48.184;11.510;2022-07-19T19:06:21;96068.38;;;26.37;33.37
7662;BME280;30314;48.184;11.510;2022-07-19T19:08:59;95994.88;;;25.62;34.85
7662;BME280;30314;48.184;11.510;2022-07-19T19:11:42;95908.97;;;25.04;34.41
7662;BME280;30314;48.184;11.510;2022-07-19T19:14:14;96009.53;;;25.61;34.59
7662;BME280;30314;48.184;11.510;2022-07-19T19:16:56;95982.44;;;25.25;34.33
7662;BME280;30314;48.184;11.510;2022-07-19T19:19:33;95884.13;;;24.62;34.91
7662;BME280;30314;48.184;11.510;2022-07-19T19:22:02;96019.56;;;25.42;35.93
7662;BME280;30314;48.184;11.510;2022-07-19T19:24:32;95908.44;;;24.55;36.64
7662;BME280;30314;48.184;11.510;2022-07-19T19:27:02;95916.94;;;24.57;34.81
7662;BME280;30314;48.184;11.510;2022-07-19T19:29:31;95922.72;;;24.67;34.73
7662;BME280;30314;48.184;11.510;2022-07-19T19:32:04;96054.72;;;25.42;34.78
7662;BME280;30314;48.184;11.510;2022-07-19T19:34:36;95951.72;;;24.70;35.34
7662;BME280;30314;48.184;11.510;2022-07-19T19:37:04;95933.88;;;24.54;37.02
7662;BME280;30314;48.184;11.510;2022-07-19T19:39:33;96009.41;;;24.96;37.38
7662;BME280;30314;48.184;11.510;2022-07-19T19:42:01;96052.28;;;25.08;35.85
7662;BME280;30314;48.184;11.510;2022-07-19T19:44:28;96101.47;;;25.28;37.25
7662;BME280;30314;48.184;11.510;2022-07-19T19:46:56;96086.72;;;25.11;37.97
7662;BME280;30314;48.184;11.510;2022-07-19T19:49:25;96023.84;;;24.55;38.16
7662;BME280;30314;48.184;11.510;2022-07-19T19:51:53;96029.59;;;24.46;38.19
7662;BME280;30314;48.184;11.510;2022-07-19T19:54:21;96089.56;;;24.73;39.80
7662;BME280;30314;48.184;11.510;2022-07-19T19:56:49;96025.56;;;24.18;38.61
7662;BME280;30314;48.184;11.510;2022-07-19T19:59:21;96052.13;;;24.12;39.13
7662;BME280;30314;48.184;11.510;2022-07-19T20:01:48;96028.81;;;23.93;39.81
7662;BME280;30314;48.184;11.510;2022-07-19T20:04:16;96100.81;;;24.23;40.71
7662;BME280;30314;48.184;11.510;2022-07-19T20:06:46;95971.63;;;23.31;41.59
7662;BME280;30314;48.184;11.510;2022-07-19T20:09:14;96085.44;;;23.86;41.98
7662;BME280;30314;48.184;11.510;2022-07-19T20:11:42;96035.66;;;23.42;42.50
7662;BME280;30314;48.184;11.510;2022-07-19T20:14:10;95978.91;;;22.93;42.84
7662;BME280;30314;48.184;11.510;2022-07-19T20:16:38;96036.69;;;23.30;42.38
7662;BME280;30314;48.184;11.510;2022-07-19T20:19:06;96028.09;;;23.20;42.45
7662;BME280;30314;48.184;11.510;2022-07-19T20:21:34;95982.34;;;22.90;42.44
7662;BME280;30314;48.184;11.510;2022-07-19T20:24:04;96090.59;;;23.60;42.76
7662;BME280;30314;48.184;11.510;2022-07-19T20:26:32;96049.84;;;23.35;42.18
7662;BME280;30314;48.184;11.510;2022-07-19T20:28:59;95951.13;;;22.55;42.51
7662;BME280;30314;48.184;11.510;2022-07-19T20:31:28;96084.75;;;23.55;42.49
7662;BME280;30314;48.184;11.510;2022-07-19T20:33:56;95963.53;;;22.63;42.90
7662;BME280;30314;48.184;11.510;2022-07-19T20:36:24;95942.09;;;22.43;42.83
7662;BME280;30314;48.184;11.510;2022-07-19T20:38:52;96095.69;;;23.35;43.50
7662;BME280;30314;48.184;11.510;2022-07-19T20:41:22;95978.09;;;22.58;42.73
7662;BME280;30314;48.184;11.510;2022-07-19T20:43:51;96075.81;;;23.16;44.02
7662;BME280;30314;48.184;11.510;2022-07-19T20:46:20;96084.78;;;23.24;42.92
7662;BME280;30314;48.184;11.510;2022-07-19T20:48:49;96002.03;;;22.63;43.71
7662;BME280;30314;48.184;11.510;2022-07-19T20:51:18;96074.97;;;23.08;43.46
7662;BME280;30314;48.184;11.510;2022-07-19T20:53:45;95952.47;;;22.14;44.06
7662;BME280;30314;48.184;11.510;2022-07-19T20:56:13;96007.22;;;22.49;44.10
7662;BME280;30314;48.184;11.510;2022-07-19T20:58:43;96052.81;;;22.61;44.63
7662;BME280;30314;48.184;11.510;2022-07-19T21:01:11;96096.66;;;22.89;45.59
7662;BME280;30314;48.184;11.510;2022-07-19T21:03:39;95929.84;;;21.65;45.70
7662;BME280;30314;48.184;11.510;2022-07-19T21:06:07;96031.84;;;22.24;45.35
7662;BME280;30314;48.184;11.510;2022-07-19T21:08:35;96081.97;;;22.56;46.48
7662;BME280;30314;48.184;11.510;2022-07-19T21:11:03;95988.66;;;21.90;45.78
7662;BME280;30314;48.184;11.510;2022-07-19T21:13:32;96050.59;;;22.17;46.46
7662;BME280;30314;48.184;11.510;2022-07-19T21:16:02;95926.00;;;21.19;48.31
7662;BME280;30314;48.184;11.510;2022-07-19T21:18:31;96088.56;;;22.35;48.04
7662;BME280;30314;48.184;11.510;2022-07-19T21:20:59;96013.91;;;21.81;47.75
7662;BME280;30314;48.184;11.510;2022-07-19T21:23:27;96015.28;;;21.72;48.27
7662;BME280;30314;48.184;11.510;2022-07-19T21:25:55;96082.38;;;22.07;48.72
7662;BME280;30314;48.184;11.510;2022-07-19T21:28:23;96059.16;;;21.76;50.09
7662;BME280;30314;48.184;11.510;2022-07-19T21:30:51;95979.84;;;21.23;49.23
7662;BME280;30314;48.184;11.510;2022-07-19T21:33:21;95949.97;;;20.85;50.48
7662;BME280;30314;48.184;11.510;2022-07-19T21:35:52;96045.53;;;21.45;49.58
7662;BME280;30314;48.184;11.510;2022-07-19T21:38:20;95974.91;;;21.05;50.60
7662;BME280;30314;48.184;11.510;2022-07-19T21:40:48;96065.97;;;21.50;50.99
7662;BME280;30314;48.184;11.510;2022-07-19T21:43:16;96013.50;;;21.17;51.75
7662;BME280;30314;48.184;11.510;2022-07-19T21:45:44;96032.13;;;21.25;50.32
7662;BME280;30314;48.184;11.510;2022-07-19T21:48:12;96044.44;;;21.26;50.26
7662;BME280;30314;48.184;11.510;2022-07-19T21:50:41;96026.00;;;21.05;51.05
7662;BME280;30314;48.184;11.510;2022-07-19T21:53:10;95993.91;;;20.77;51.16
7662;BME280;30314;48.184;11.510;2022-07-19T21:55:38;95923.16;;;20.30;51.29
7662;BME280;30314;48.184;11.510;2022-07-19T21:58:06;95977.66;;;20.69;51.21
7662;BME280;30314;48.184;11.510;2022-07-19T22:00:34;95996.44;;;20.69;51.78
7662;BME280;30314;48.184;11.510;2022-07-19T22:03:02;95979.41;;;20.62;51.80
7662;BME280;30314;48.184;11.510;2022-07-19T22:05:30;95910.91;;;20.12;52.47
7662;BME280;30314;48.184;11.510;2022-07-19T22:07:59;95981.88;;;20.51;53.07
7662;BME280;30314;48.184;11.510;2022-07-19T22:10:27;95905.66;;;20.00;52.18
7662;BME280;30314;48.184;11.510;2022-07-19T22:12:55;96019.44;;;20.67;51.90
7662;BME280;30314;48.184;11.510;2022-07-19T22:15:22;96031.09;;;20.75;52.73
7662;BME280;30314;48.184;11.510;2022-07-19T22:17:50;95975.19;;;20.25;54.22
7662;BME280;30314;48.184;11.510;2022-07-19T22:20:19;95978.59;;;20.22;54.50
7662;BME280;30314;48.184;11.510;2022-07-19T22:22:47;96027.44;;;20.47;53.75
7662;BME280;30314;48.184;11.510;2022-07-19T22:25:17;95980.59;;;20.09;54.97
7662;BME280;30314;48.184;11.510;2022-07-19T22:27:44;95910.78;;;19.57;54.92
7662;BME280;30314;48.184;11.510;2022-07-19T22:30:12;95940.47;;;19.64;55.09
7662;BME280;30314;48.184;11.510;2022-07-19T22:32:40;96037.78;;;20.29;56.55
7662;BME280;30314;48.184;11.510;2022-07-19T22:35:08;95996.78;;;19.96;56.45
7662;BME280;30314;48.184;11.510;2022-07-19T22:37:36;96097.78;;;20.53;56.24
7662;BME280;30314;48.184;11.510;2022-07-19T22:40:05;96021.72;;;19.97;56.58
7662;BME280;30314;48.184;11.510;2022-07-19T22:42:35;96027.94;;;20.01;57.46
7662;BME280;30314;48.184;11.510;2022-07-19T22:45:04;96048.66;;;20.00;56.36
7662;BME280;30314;48.184;11.510;2022-07-19T22:47:32;96052.91;;;20.02;57.97
7662;BME280;30314;48.184;11.510;2022-07-19T22:50:08;96089.84;;;20.24;57.67
7662;BME280;30314;48.184;11.510;2022-07-19T22:52:36;95920.13;;;19.15;57.81
7662;BME280;30314;48.184;11.510;2022-07-19T22:55:05;96017.81;;;19.62;58.48
7662;BME280;30314;48.184;11.510;2022-07-19T22:57:33;95991.94;;;19.38;57.65
7662;BME280;30314;48.184;11.510;2022-07-19T23:00:04;96083.38;;;20.09;58.34
7662;BME280;30314;48.184;11.510;2022-07-19T23:02:32;96023.50;;;19.61;59.76
7662;BME280;30314;48.184;11.510;2022-07-19T23:05:00;96010.59;;;19.50;59.54
7662;BME280;30314;48.184;11.510;2022-07-19T23:07:28;95933.88;;;18.85;59.95
7662;BME280;30314;48.184;11.510;2022-07-19T23:09:56;95948.13;;;19.01;59.65
7662;BME280;30314;48.184;11.510;2022-07-19T23:12:24;96023.78;;;19.55;59.36
7662;BME280;30314;48.184;11.510;2022-07-19T23:14:52;96060.81;;;19.82;59.45
7662;BME280;30314;48.184;11.510;2022-07-19T23:17:21;95935.53;;;18.90;60.56
7662;BME280;30314;48.184;11.510;2022-07-19T23:19:49;95968.16;;;19.08;59.73
7662;BME280;30314;48.184;11.510;2022-07-19T23:22:17;95954.63;;;18.88;61.20
7662;BME280;30314;48.184;11.510;2022-07-19T23:24:45;96006.00;;;19.19;61.74
7662;BME280;30314;48.184;11.510;2022-07-19T23:27:13;95967.22;;;18.87;61.46
7662;BME280;30314;48.184;11.510;2022-07-19T23:29:40;95904.50;;;18.31;61.98
7662;BME280;30314;48.184;11.510;2022-07-19T23:32:08;95995.41;;;18.97;62.69
7662;BME280;30314;48.184;11.510;2022-07-19T23:34:38;96049.84;;;19.26;61.97
7662;BME280;30314;48.184;11.510;2022-07-19T23:37:05;95867.47;;;18.05;62.31
7662;BME280;30314;48.184;11.510;2022-07-19T23:39:33;96011.75;;;18.92;63.49
7662;BME280;30314;48.184;11.510;2022-07-19T23:42:01;95963.66;;;18.55;63.81
7662;BME280;30314;48.184;11.510;2022-07-19T23:44:30;96001.53;;;18.69;63.54
7662;BME280;30314;48.184;11.510;2022-07-19T23:46:58;96021.81;;;18.83;63.50
7662;BME280;30314;48.184;11.510;2022-07-19T23:49:25;96068.31;;;19.03;64.32
7662;BME280;30314;48.184;11.510;2022-07-19T23:51:54;95987.31;;;18.53;63.85
7662;BME280;30314;48.184;11.510;2022-07-19T23:54:22;95912.25;;;17.96;64.33
7662;BME280;30314;48.184;11.510;2022-07-19T23:56:50;95997.81;;;18.45;64.98
7662;BME280;30314;48.184;11.510;2022-07-19T23:59:18;95955.81;;;18.21;65.91
